Time;durP1;ratioP1;P1;durP2;ratioP2;P2;SDS_P1;SDS_P2;PMS_P1;PMS_P2;Temp;Humidity;BMP_temperature;BMP_pressure;BME280_temperature;BME280_humidity;BME280_pressure;Samples;Min_cycle;Max_cycle;Signal;HPM_P1;HPM_P2
2022/09/21 00:02:13;;;;;;;9.57;5.43;;;13.20;99.90;;;;;;4996743;28;20552;-67
2022/09/21 00:04:39;;;;;;;8.10;5.00;;;13.10;99.90;;;;;;4996405;28;20461;-68
2022/09/21 00:07:04;;;;;;;6.10;5.47;;;13.10;99.90;;;;;;4997957;28;20672;-67
2022/09/21 00:09:30;;;;;;;6.80;5.10;;;13.10;99.90;;;;;;4995836;28;20189;-66
2022/09/21 00:11:55;;;;;;;7.10;4.67;;;13.10;99.90;;;;;;4993639;28;20217;-67
2022/09/21 00:14:21;;;;;;;6.73;4.90;;;13.10;99.90;;;;;;4993112;28;20196;-68
2022/09/21 00:16:47;;;;;;;5.17;4.67;;;13.10;99.90;;;;;;4992737;28;20304;-68
2022/09/21 00:19:12;;;;;;;7.97;5.13;;;13.00;99.90;;;;;;4992840;28;20599;-68
2022/09/21 00:21:38;;;;;;;6.33;4.63;;;13.00;99.90;;;;;;4995629;28;20220;-67
2022/09/21 00:24:05;;;;;;;6.53;5.00;;;12.90;99.90;;;;;;4977170;28;20181;-67
2022/09/21 00:26:31;;;;;;;9.70;4.80;;;12.90;99.90;;;;;;4994735;28;20212;-67
2022/09/21 00:28:59;;;;;;;8.53;5.10;;;12.90;99.90;;;;;;4995132;28;20535;-67
2022/09/21 00:31:26;;;;;;;6.93;4.70;;;12.90;99.90;;;;;;4995662;28;20443;-66
2022/09/21 00:33:52;;;;;;;6.10;5.13;;;12.90;99.90;;;;;;4997801;28;20428;-67
2022/09/21 00:36:21;;;;;;;6.40;4.80;;;12.90;99.90;;;;;;4995516;28;20478;-69
2022/09/21 00:38:52;;;;;;;6.47;5.30;;;12.80;99.90;;;;;;4994367;28;20455;-67
2022/09/21 00:41:18;;;;;;;5.07;4.57;;;12.80;99.90;;;;;;5000148;28;20435;-66
2022/09/21 00:43:47;;;;;;;7.07;5.10;;;12.80;99.90;;;;;;4999503;28;20432;-67
2022/09/21 00:46:28;;;;;;;8.73;4.97;;;12.80;99.90;;;;;;4995026;28;20878;-68
2022/09/21 00:48:55;;;;;;;8.63;4.13;;;12.70;99.90;;;;;;4994364;28;20486;-69
2022/09/21 00:51:21;;;;;;;10.47;5.10;;;12.70;99.90;;;;;;4996070;28;20455;-69
2022/09/21 00:53:56;;;;;;;7.60;4.97;;;12.70;99.90;;;;;;5000914;28;20494;-69
2022/09/21 00:56:22;;;;;;;7.47;4.70;;;12.60;99.90;;;;;;4996470;28;20216;-68
2022/09/21 00:58:51;;;;;;;10.70;5.40;;;12.60;99.90;;;;;;5001255;28;20757;-67
2022/09/21 01:01:18;;;;;;;8.73;5.43;;;12.60;99.90;;;;;;4998492;28;20816;-67
2022/09/21 01:03:49;;;;;;;6.97;5.20;;;12.60;99.90;;;;;;4995730;28;20471;-67
2022/09/21 01:06:17;;;;;;;6.47;4.63;;;12.60;99.90;;;;;;4994306;28;21250;-67
2022/09/21 01:08:45;;;;;;;6.20;4.00;;;12.60;99.90;;;;;;4994129;28;20956;-67
2022/09/21 01:11:25;;;;;;;7.20;5.53;;;12.60;99.90;;;;;;4995313;28;20491;-67
2022/09/21 01:14:25;;;;;;;7.33;4.97;;;12.60;99.90;;;;;;4994574;28;21330;-67
2022/09/21 01:17:11;;;;;;;6.90;4.60;;;12.50;99.90;;;;;;4997795;28;20754;-67
2022/09/21 01:20:05;;;;;;;5.40;4.33;;;12.50;99.90;;;;;;4994181;28;20479;-66
2022/09/21 01:22:52;;;;;;;6.03;4.27;;;12.50;99.90;;;;;;4993078;28;20440;-67
2022/09/21 01:25:32;;;;;;;6.30;5.67;;;12.50;99.90;;;;;;4995030;28;20938;-66
2022/09/21 01:28:15;;;;;;;5.57;4.97;;;12.50;99.90;;;;;;4997204;28;20471;-67
2022/09/21 01:30:43;;;;;;;6.80;4.40;;;12.50;99.90;;;;;;4988140;28;20444;-67
2022/09/21 01:33:22;;;;;;;6.60;4.60;;;12.50;99.90;;;;;;4993907;28;20435;-66
2022/09/21 01:35:55;;;;;;;5.73;4.30;;;12.40;99.90;;;;;;4998118;28;20479;-66
2022/09/21 01:38:35;;;;;;;9.43;3.97;;;12.40;99.90;;;;;;5002894;28;20455;-66
2022/09/21 01:41:03;;;;;;;7.10;4.33;;;12.40;99.90;;;;;;4996873;28;20449;-67
2022/09/21 01:43:39;;;;;;;8.17;5.00;;;12.40;99.90;;;;;;4997351;28;20841;-67
2022/09/21 01:46:09;;;;;;;6.47;4.47;;;12.30;99.90;;;;;;4994166;28;20521;-67
2022/09/21 01:48:40;;;;;;;5.50;4.17;;;12.30;99.90;;;;;;4996914;28;20604;-66
2022/09/21 01:51:10;;;;;;;4.77;4.27;;;12.30;99.90;;;;;;4995393;28;20483;-67
2022/09/21 01:53:39;;;;;;;6.23;4.07;;;12.30;99.90;;;;;;4999990;28;20660;-67
2022/09/21 01:56:31;;;;;;;7.23;3.60;;;12.30;99.90;;;;;;5002057;28;20476;-67
2022/09/21 01:59:14;;;;;;;6.20;4.33;;;12.30;99.90;;;;;;5001628;28;20436;-67
2022/09/21 02:01:52;;;;;;;6.10;4.40;;;12.20;99.90;;;;;;4997786;28;20490;-68
2022/09/21 02:04:18;;;;;;;5.37;3.97;;;12.20;99.90;;;;;;4999034;28;20442;-68
2022/09/21 02:06:46;;;;;;;8.43;5.17;;;12.20;99.90;;;;;;5001737;28;21256;-67
2022/09/21 02:09:12;;;;;;;6.40;4.40;;;12.20;99.90;;;;;;4998845;28;20482;-67
2022/09/21 02:11:41;;;;;;;7.03;4.10;;;12.10;99.90;;;;;;5000554;28;20441;-67
2022/09/21 02:14:08;;;;;;;5.90;4.10;;;12.10;99.90;;;;;;5002775;28;20489;-67
2022/09/21 02:16:43;;;;;;;9.30;4.87;;;12.10;99.90;;;;;;5000138;28;20506;-68
2022/09/21 02:19:34;;;;;;;6.40;4.40;;;12.00;99.90;;;;;;5001074;28;20446;-68
2022/09/21 02:22:15;;;;;;;4.87;4.07;;;12.00;99.90;;;;;;5001210;28;20468;-67
2022/09/21 02:24:46;;;;;;;5.73;4.70;;;12.00;99.90;;;;;;5003211;28;20820;-67
2022/09/21 02:27:36;;;;;;;6.00;4.10;;;11.90;99.90;;;;;;5001679;28;20518;-67
2022/09/21 02:30:10;;;;;;;5.30;3.80;;;11.90;99.90;;;;;;4992398;28;20483;-69
2022/09/21 02:32:58;;;;;;;6.50;4.43;;;11.90;99.90;;;;;;5000225;28;20952;-68
2022/09/21 02:35:54;;;;;;;7.93;3.73;;;11.90;99.90;;;;;;5002480;28;20463;-68
2022/09/21 02:39:02;;;;;;;4.77;4.00;;;11.90;99.90;;;;;;4997771;28;20460;-68
2022/09/21 02:41:50;;;;;;;9.03;4.27;;;11.80;99.90;;;;;;4993077;28;20495;-67
2022/09/21 02:44:23;;;;;;;6.80;4.30;;;11.80;99.90;;;;;;4996046;28;20468;-68
2022/09/21 02:46:54;;;;;;;11.00;4.43;;;11.80;99.90;;;;;;4996418;28;20476;-68
2022/09/21 02:49:32;;;;;;;5.80;4.53;;;11.80;99.90;;;;;;4995496;28;20436;-67
2022/09/21 02:52:04;;;;;;;5.20;3.93;;;11.80;99.90;;;;;;4993731;28;20880;-66
2022/09/21 02:54:31;;;;;;;5.87;4.33;;;11.80;99.90;;;;;;4982219;28;20995;-68
2022/09/21 02:56:59;;;;;;;5.07;4.10;;;11.80;99.90;;;;;;4996552;28;20490;-67
2022/09/21 02:59:26;;;;;;;5.90;3.93;;;11.80;99.90;;;;;;4995622;28;20444;-68
2022/09/21 03:01:51;;;;;;;5.57;4.43;;;11.80;99.90;;;;;;5001749;28;20440;-67
2022/09/21 03:04:17;;;;;;;5.20;4.40;;;11.70;99.90;;;;;;4996120;28;20435;-67
2022/09/21 03:06:43;;;;;;;5.83;4.00;;;11.70;99.90;;;;;;4995543;28;20556;-67
2022/09/21 03:09:08;;;;;;;8.47;4.70;;;11.70;99.90;;;;;;4994782;28;20221;-68
2022/09/21 03:11:38;;;;;;;4.80;4.10;;;11.70;99.90;;;;;;4996726;28;20925;-67
2022/09/21 03:14:07;;;;;;;6.50;4.40;;;11.70;99.90;;;;;;4998204;28;20235;-67
2022/09/21 03:16:37;;;;;;;8.60;4.30;;;11.70;99.90;;;;;;5000153;28;20514;-67
2022/09/21 03:19:03;;;;;;;5.30;4.27;;;11.60;99.90;;;;;;4997775;28;20436;-69
2022/09/21 03:21:29;;;;;;;6.10;4.43;;;11.60;99.90;;;;;;4978054;28;20440;-67
2022/09/21 03:23:55;;;;;;;6.50;4.80;;;11.60;99.90;;;;;;4998269;28;20968;-67
2022/09/21 03:26:21;;;;;;;5.80;3.90;;;11.60;99.90;;;;;;5000706;28;20288;-69
2022/09/21 03:28:53;;;;;;;4.90;4.30;;;11.60;99.90;;;;;;4994878;28;20740;-68
2022/09/21 03:31:19;;;;;;;7.63;4.43;;;11.60;99.90;;;;;;4993992;28;20455;-69
2022/09/21 03:33:45;;;;;;;5.53;3.93;;;11.60;99.90;;;;;;4980248;28;20469;-68
2022/09/21 03:36:11;;;;;;;8.97;3.90;;;11.60;99.90;;;;;;4995061;28;20537;-68
2022/09/21 03:38:37;;;;;;;15.30;4.40;;;11.60;99.90;;;;;;4999339;28;20197;-68
2022/09/21 03:41:03;;;;;;;7.67;4.50;;;11.60;99.90;;;;;;4993990;28;20851;-68
2022/09/21 03:43:29;;;;;;;8.10;4.43;;;11.60;99.90;;;;;;4994917;28;20447;-67
2022/09/21 03:45:54;;;;;;;6.20;4.60;;;11.60;99.90;;;;;;4997399;28;20969;-69
2022/09/21 03:48:21;;;;;;;6.63;4.80;;;11.50;99.90;;;;;;4993945;28;20930;-67
2022/09/21 03:50:47;;;;;;;8.00;4.80;;;11.50;99.90;;;;;;4995870;28;20192;-67
2022/09/21 03:53:12;;;;;;;7.00;4.20;;;11.50;99.90;;;;;;4979808;28;21100;-69
2022/09/21 03:55:38;;;;;;;7.43;4.00;;;11.50;99.90;;;;;;4996655;28;20475;-68
2022/09/21 03:58:04;;;;;;;5.30;4.20;;;11.40;99.90;;;;;;4994620;28;20436;-67
2022/09/21 04:00:31;;;;;;;6.70;4.70;;;11.50;99.90;;;;;;4978521;28;20216;-68
2022/09/21 04:02:57;;;;;;;5.53;3.97;;;11.50;99.90;;;;;;4997286;28;20508;-67
2022/09/21 04:05:22;;;;;;;4.40;3.97;;;11.40;99.90;;;;;;4994019;28;20440;-69
2022/09/21 04:07:48;;;;;;;5.03;3.60;;;11.40;99.90;;;;;;4994165;28;20244;-69
2022/09/21 04:10:20;;;;;;;6.50;4.30;;;11.40;99.90;;;;;;4995507;28;20288;-68
2022/09/21 04:12:46;;;;;;;7.67;4.00;;;11.30;99.90;;;;;;4995384;28;20514;-68
2022/09/21 04:15:18;;;;;;;10.27;4.00;;;11.30;99.90;;;;;;4995824;28;20492;-69
2022/09/21 04:17:44;;;;;;;5.90;3.90;;;11.30;99.90;;;;;;4995605;28;20490;-68
2022/09/21 04:20:10;;;;;;;6.30;4.60;;;11.20;99.90;;;;;;4996534;28;20507;-68
2022/09/21 04:22:36;;;;;;;4.70;4.00;;;11.20;99.90;;;;;;4997038;28;21110;-68
2022/09/21 04:25:03;;;;;;;5.33;3.80;;;11.20;99.90;;;;;;4980082;28;20210;-67
2022/09/21 04:27:30;;;;;;;6.23;3.97;;;11.10;99.90;;;;;;4999825;28;20217;-67
2022/09/21 04:29:55;;;;;;;4.30;3.90;;;11.10;99.90;;;;;;4998284;28;20526;-68
2022/09/21 04:32:21;;;;;;;4.87;4.13;;;11.10;99.90;;;;;;4983032;28;21568;-68
2022/09/21 04:34:46;;;;;;;6.63;4.60;;;11.10;99.90;;;;;;4996740;28;20315;-68
2022/09/21 04:37:12;;;;;;;5.37;3.70;;;11.10;99.90;;;;;;4992929;28;21171;-67
2022/09/21 04:39:38;;;;;;;4.97;3.87;;;11.00;99.90;;;;;;4996964;28;20261;-68
2022/09/21 04:42:04;;;;;;;6.83;4.03;;;11.00;99.90;;;;;;4995730;28;20220;-69
2022/09/21 04:44:30;;;;;;;7.10;4.40;;;11.00;99.90;;;;;;4997339;28;20707;-69
2022/09/21 04:46:57;;;;;;;5.90;4.70;;;11.00;99.90;;;;;;4997199;28;20432;-69
2022/09/21 04:49:22;;;;;;;5.00;4.10;;;10.90;99.90;;;;;;4997670;28;20193;-69
2022/09/21 04:51:48;;;;;;;7.57;4.90;;;10.90;99.90;;;;;;4998526;28;20443;-70
2022/09/21 04:54:14;;;;;;;9.67;5.23;;;10.90;99.90;;;;;;4998130;28;20705;-69
2022/09/21 04:56:39;;;;;;;7.30;4.40;;;10.90;99.90;;;;;;4996416;28;20592;-69
2022/09/21 04:59:05;;;;;;;6.57;3.80;;;10.80;99.90;;;;;;5000710;28;20189;-69
2022/09/21 05:01:30;;;;;;;7.03;4.77;;;10.80;99.90;;;;;;5002317;28;20184;-69
2022/09/21 05:04:01;;;;;;;6.67;4.60;;;10.80;99.90;;;;;;5003154;28;20177;-69
2022/09/21 05:06:28;;;;;;;11.70;5.00;;;10.80;99.90;;;;;;4998819;28;20213;-68
2022/09/21 05:11:38;;;;;;;6.03;4.33;;;10.70;99.90;;;;;;5000111;28;20435;-68
2022/09/21 05:14:04;;;;;;;7.17;4.63;;;10.70;99.90;;;;;;4995101;28;20618;-69
2022/09/21 05:16:29;;;;;;;5.40;4.80;;;10.70;99.90;;;;;;4999984;28;20301;-68
2022/09/21 05:18:55;;;;;;;7.10;4.40;;;10.70;99.90;;;;;;4997977;28;20264;-68
2022/09/21 05:21:21;;;;;;;5.83;3.97;;;10.70;99.90;;;;;;4999103;28;20200;-69
2022/09/21 05:23:46;;;;;;;9.47;5.20;;;10.70;99.90;;;;;;5000346;28;20181;-68
2022/09/21 05:26:12;;;;;;;14.70;5.27;;;10.70;99.90;;;;;;4996535;28;20592;-69
2022/09/21 05:28:38;;;;;;;6.97;4.13;;;10.60;99.90;;;;;;4996189;28;20711;-69
2022/09/21 05:31:10;;;;;;;18.60;4.43;;;10.60;99.90;;;;;;4996338;28;20189;-69
2022/09/21 05:33:39;;;;;;;6.90;4.00;;;10.60;99.90;;;;;;4994611;28;20431;-68
2022/09/21 05:36:45;;;;;;;5.37;4.40;;;10.60;99.90;;;;;;4995776;28;21023;-68
2022/09/21 05:39:11;;;;;;;7.43;4.30;;;10.60;99.90;;;;;;4993814;28;20494;-69
2022/09/21 05:41:39;;;;;;;7.00;4.37;;;10.60;99.90;;;;;;4995364;28;20470;-68
2022/09/21 05:44:05;;;;;;;6.03;4.40;;;10.50;99.90;;;;;;4996139;28;20424;-69
2022/09/21 05:46:30;;;;;;;7.63;4.07;;;10.50;99.90;;;;;;4990368;28;20469;-68
2022/09/21 05:49:02;;;;;;;7.07;3.90;;;10.50;99.90;;;;;;4994895;28;20919;-68
2022/09/21 05:51:42;;;;;;;5.00;4.27;;;10.50;99.90;;;;;;4995563;28;20305;-69
2022/09/21 05:54:40;;;;;;;5.77;4.17;;;10.50;99.90;;;;;;4997960;28;20805;-68
2022/09/21 05:57:22;;;;;;;4.30;3.70;;;10.50;99.90;;;;;;4992946;28;21032;-68
2022/09/21 05:59:59;;;;;;;7.40;5.60;;;10.60;99.90;;;;;;4993612;28;20518;-69
2022/09/21 06:03:08;;;;;;;7.00;4.50;;;10.60;99.90;;;;;;4998237;28;20436;-68
2022/09/21 06:05:34;;;;;;;7.20;4.23;;;10.50;99.90;;;;;;4998408;28;20501;-69
2022/09/21 06:08:00;;;;;;;8.20;4.60;;;10.60;99.90;;;;;;4994905;28;20534;-69
2022/09/21 06:10:31;;;;;;;4.97;4.23;;;10.50;99.90;;;;;;5001139;28;20569;-69
2022/09/21 06:12:56;;;;;;;7.43;4.47;;;10.60;99.90;;;;;;4997739;28;20562;-69
2022/09/21 06:15:22;;;;;;;6.40;4.83;;;10.60;99.90;;;;;;4994596;28;20467;-69
2022/09/21 06:17:47;;;;;;;7.83;5.00;;;10.60;99.90;;;;;;4981421;28;20215;-69
2022/09/21 06:20:13;;;;;;;5.37;4.70;;;10.60;99.90;;;;;;5001652;28;20699;-69
2022/09/21 06:22:38;;;;;;;7.20;5.57;;;10.60;99.90;;;;;;4999304;28;20312;-69
2022/09/21 06:25:04;;;;;;;6.20;5.13;;;10.60;99.90;;;;;;5000125;28;20760;-68
2022/09/21 06:27:30;;;;;;;7.80;4.70;;;10.60;99.90;;;;;;5002147;28;20777;-67
2022/09/21 06:29:56;;;;;;;8.07;4.30;;;10.60;99.90;;;;;;5000866;28;20439;-69
2022/09/21 06:32:21;;;;;;;6.73;4.53;;;10.60;99.90;;;;;;5000504;28;20239;-70
2022/09/21 06:34:48;;;;;;;7.67;4.80;;;10.70;99.90;;;;;;4998920;28;20589;-69
2022/09/21 06:37:14;;;;;;;6.93;5.03;;;10.70;99.90;;;;;;5001545;28;20209;-69
2022/09/21 06:39:40;;;;;;;8.10;5.13;;;10.70;99.90;;;;;;4981417;28;20577;-69
2022/09/21 06:42:05;;;;;;;7.40;5.17;;;10.70;99.90;;;;;;4998804;28;21049;-69
2022/09/21 06:44:31;;;;;;;8.73;5.13;;;10.70;99.90;;;;;;5002912;28;20263;-68
2022/09/21 06:46:56;;;;;;;11.07;5.47;;;10.80;99.90;;;;;;5000978;28;20204;-69
2022/09/21 06:49:22;;;;;;;9.83;5.50;;;10.80;99.90;;;;;;5003087;28;20276;-69
2022/09/21 06:51:48;;;;;;;10.93;5.47;;;10.80;99.90;;;;;;4980889;28;20678;-70
2022/09/21 06:54:14;;;;;;;6.03;5.10;;;10.90;99.90;;;;;;4992589;28;20584;-69
2022/09/21 06:56:42;;;;;;;6.57;4.90;;;10.90;99.90;;;;;;5000010;28;20209;-69
2022/09/21 06:59:08;;;;;;;6.10;4.77;;;11.00;99.90;;;;;;5001645;28;20189;-70
2022/09/21 07:01:33;;;;;;;6.73;5.30;;;11.00;99.90;;;;;;4997542;28;20497;-69
2022/09/21 07:03:59;;;;;;;10.00;6.13;;;11.10;99.90;;;;;;5000053;28;20428;-69
2022/09/21 07:06:25;;;;;;;7.50;5.50;;;11.10;99.90;;;;;;5002945;28;20762;-70
2022/09/21 07:08:52;;;;;;;10.43;5.10;;;11.20;99.90;;;;;;5002649;28;20216;-69
2022/09/21 07:11:18;;;;;;;8.43;5.83;;;11.20;99.90;;;;;;4997398;28;20189;-69
2022/09/21 07:13:44;;;;;;;8.70;6.07;;;11.30;99.90;;;;;;5001470;28;20958;-69
2022/09/21 07:16:11;;;;;;;9.20;5.40;;;11.30;99.90;;;;;;4995903;28;20599;-70
2022/09/21 07:18:38;;;;;;;15.90;6.87;;;11.30;99.90;;;;;;4999849;28;20522;-69
2022/09/21 07:21:06;;;;;;;7.83;5.30;;;11.40;99.90;;;;;;5000437;28;20787;-69
2022/09/21 07:23:31;;;;;;;8.13;5.90;;;11.40;99.90;;;;;;5002624;28;20472;-69
2022/09/21 07:26:05;;;;;;;10.93;5.30;;;11.40;99.90;;;;;;5002688;28;21040;-68
2022/09/21 07:28:30;;;;;;;7.83;4.90;;;11.50;99.90;;;;;;4998147;28;20181;-69
2022/09/21 07:30:57;;;;;;;8.10;6.10;;;11.50;99.90;;;;;;4997207;28;20538;-70
2022/09/21 07:33:24;;;;;;;8.60;5.67;;;11.60;99.90;;;;;;5002524;28;20905;-69
2022/09/21 07:35:55;;;;;;;8.13;5.80;;;11.70;99.90;;;;;;5002188;28;21043;-70
2022/09/21 07:38:21;;;;;;;10.40;5.37;;;11.70;99.90;;;;;;5002681;28;20517;-69
2022/09/21 07:40:47;;;;;;;8.00;5.60;;;11.80;99.90;;;;;;4997019;28;20539;-69
2022/09/21 07:43:13;;;;;;;7.93;5.70;;;11.90;99.90;;;;;;4998277;28;20515;-68
2022/09/21 07:45:38;;;;;;;7.33;5.93;;;11.90;99.90;;;;;;4999583;28;21262;-69
2022/09/21 07:48:05;;;;;;;12.70;5.93;;;12.00;99.90;;;;;;4996407;28;20331;-69
2022/09/21 07:50:35;;;;;;;8.50;6.53;;;12.00;99.90;;;;;;5001233;28;20181;-69
2022/09/21 07:53:02;;;;;;;9.20;6.17;;;12.10;99.90;;;;;;4997957;28;20469;-70
2022/09/21 07:55:28;;;;;;;7.77;6.27;;;12.10;99.90;;;;;;4998143;28;20449;-69
2022/09/21 08:00:38;;;;;;;11.87;6.70;;;12.20;99.90;;;;;;4998712;28;20589;-68
2022/09/21 08:03:05;;;;;;;8.90;7.13;;;12.30;99.90;;;;;;4996815;28;20432;-68
2022/09/21 08:05:32;;;;;;;7.90;6.93;;;12.30;99.90;;;;;;5000054;28;20285;-68
2022/09/21 08:07:58;;;;;;;13.23;7.17;;;12.40;99.90;;;;;;4998660;28;20420;-69
2022/09/21 08:10:27;;;;;;;10.20;7.73;;;12.50;99.90;;;;;;4999190;28;20419;-69
2022/09/21 08:12:52;;;;;;;10.30;7.20;;;12.50;99.90;;;;;;4997749;28;20184;-69
2022/09/21 08:15:18;;;;;;;9.10;6.70;;;12.50;99.90;;;;;;4998953;28;20470;-70
2022/09/21 08:17:44;;;;;;;9.63;7.30;;;12.60;99.90;;;;;;4999301;28;20197;-68
2022/09/21 08:20:09;;;;;;;11.07;7.77;;;12.70;99.90;;;;;;4998474;28;20193;-69
2022/09/21 08:22:35;;;;;;;11.63;7.70;;;12.70;99.90;;;;;;4995805;28;20191;-69
2022/09/21 08:25:01;;;;;;;8.93;7.10;;;12.80;99.90;;;;;;4996951;28;20276;-68
2022/09/21 08:27:27;;;;;;;8.77;6.67;;;12.90;99.90;;;;;;5001535;28;20177;-69
2022/09/21 08:29:53;;;;;;;8.00;6.40;;;12.90;99.90;;;;;;5001860;28;20193;-69
2022/09/21 08:32:18;;;;;;;10.37;6.40;;;13.00;99.90;;;;;;4998628;28;20444;-68
2022/09/21 08:34:44;;;;;;;10.13;6.80;;;13.00;99.90;;;;;;4998136;28;20208;-68
2022/09/21 08:37:09;;;;;;;7.90;6.77;;;13.10;99.90;;;;;;4998580;28;20704;-69
2022/09/21 08:39:36;;;;;;;9.07;6.63;;;13.20;99.90;;;;;;4996625;28;20188;-68
2022/09/21 08:42:26;;;;;;;12.40;7.67;;;13.20;99.90;;;;;;4992662;28;20336;-68
2022/09/21 08:44:56;;;;;;;11.93;7.00;;;13.20;99.90;;;;;;4999172;28;20441;-69
2022/09/21 08:47:35;;;;;;;10.83;7.70;;;13.30;99.90;;;;;;5000723;28;21148;-68
2022/09/21 08:50:03;;;;;;;12.87;7.13;;;13.40;99.90;;;;;;4998441;28;21182;-69
2022/09/21 08:52:31;;;;;;;12.10;7.60;;;13.40;99.90;;;;;;4996055;28;20436;-69
2022/09/21 08:55:06;;;;;;;9.30;6.83;;;13.50;99.90;;;;;;4995859;28;20452;-69
2022/09/21 08:57:33;;;;;;;8.87;5.73;;;13.60;99.90;;;;;;4998081;28;20467;-68
2022/09/21 09:00:00;;;;;;;10.50;6.60;;;13.60;99.90;;;;;;4998831;28;20486;-69
2022/09/21 09:02:49;;;;;;;9.47;6.40;;;13.70;99.90;;;;;;4996017;28;20424;-69
2022/09/21 09:05:14;;;;;;;8.53;6.47;;;13.80;99.90;;;;;;4979613;28;20454;-69
2022/09/21 09:07:58;;;;;;;9.87;6.60;;;13.80;99.90;;;;;;4996980;28;20424;-69
2022/09/21 09:10:40;;;;;;;8.70;6.17;;;13.90;99.90;;;;;;5000180;28;20188;-68
2022/09/21 09:13:08;;;;;;;9.43;6.10;;;14.00;99.90;;;;;;4998896;28;20488;-68
2022/09/21 09:16:11;;;;;;;7.57;5.20;;;14.00;99.90;;;;;;5000526;28;20682;-69
2022/09/21 09:18:57;;;;;;;9.07;5.07;;;14.10;99.90;;;;;;4997365;28;21175;-68
2022/09/21 09:21:40;;;;;;;7.20;5.10;;;14.20;99.90;;;;;;4996737;28;20440;-69
2022/09/21 09:24:26;;;;;;;9.60;5.03;;;14.20;99.90;;;;;;4995965;28;20791;-69
2022/09/21 09:27:08;;;;;;;7.43;4.93;;;14.30;99.90;;;;;;4996822;28;20503;-69
2022/09/21 09:29:48;;;;;;;8.13;5.10;;;14.40;99.90;;;;;;4992409;28;20526;-69
2022/09/21 09:32:16;;;;;;;7.40;4.93;;;14.50;99.90;;;;;;4995227;28;20428;-69
2022/09/21 09:34:52;;;;;;;6.30;4.80;;;14.60;99.90;;;;;;4998854;28;21201;-69
2022/09/21 09:37:23;;;;;;;6.40;5.20;;;14.60;99.90;;;;;;4996663;28;20467;-69
2022/09/21 09:39:54;;;;;;;6.70;5.20;;;14.70;99.90;;;;;;4998783;28;20508;-69
2022/09/21 09:42:53;;;;;;;6.43;4.97;;;14.80;99.90;;;;;;4998034;28;20474;-68
2022/09/21 09:45:26;;;;;;;6.60;4.87;;;14.80;99.90;;;;;;4996276;28;20986;-68
2022/09/21 09:48:08;;;;;;;6.03;4.20;;;14.90;99.90;;;;;;4997502;28;20439;-68
2022/09/21 09:50:37;;;;;;;6.23;4.23;;;15.00;99.90;;;;;;5000457;28;20478;-68
2022/09/21 09:53:10;;;;;;;6.23;4.50;;;15.10;99.90;;;;;;5001901;28;20440;-68
2022/09/21 09:55:39;;;;;;;7.33;4.10;;;15.10;99.90;;;;;;4998414;28;20971;-69
2022/09/21 09:58:35;;;;;;;7.00;3.83;;;15.20;99.90;;;;;;5003797;28;20530;-68
2022/09/21 10:01:01;;;;;;;4.00;3.47;;;15.30;99.90;;;;;;4993787;28;20447;-69
2022/09/21 10:03:27;;;;;;;4.73;3.50;;;15.30;99.90;;;;;;5002179;28;20489;-68
2022/09/21 10:05:53;;;;;;;4.93;4.27;;;15.40;99.90;;;;;;4998703;28;20794;-69
2022/09/21 10:08:29;;;;;;;6.10;3.37;;;15.50;99.90;;;;;;5003443;28;20431;-68
2022/09/21 10:10:56;;;;;;;4.53;3.13;;;15.50;99.90;;;;;;4999773;28;20515;-69
2022/09/21 10:13:32;;;;;;;3.30;2.50;;;15.60;99.90;;;;;;4997676;28;20448;-69
2022/09/21 10:16:03;;;;;;;10.30;3.43;;;15.70;99.90;;;;;;5000961;28;20463;-68
2022/09/21 10:18:48;;;;;;;4.63;3.10;;;15.80;99.90;;;;;;5000982;28;20434;-68
2022/09/21 10:21:22;;;;;;;6.50;3.20;;;15.80;99.90;;;;;;4998469;28;20917;-70
2022/09/21 10:24:00;;;;;;;5.53;2.97;;;15.80;99.90;;;;;;5001758;28;20448;-67
2022/09/21 10:26:47;;;;;;;6.67;2.87;;;16.00;99.90;;;;;;5001866;28;21030;-68
2022/09/21 10:29:21;;;;;;;4.40;2.47;;;16.10;99.90;;;;;;4999876;28;20497;-69
2022/09/21 10:31:58;;;;;;;3.23;2.90;;;16.10;99.90;;;;;;5001207;28;20432;-69
2022/09/21 10:34:26;;;;;;;8.10;3.20;;;16.20;99.90;;;;;;4998026;28;20420;-69
2022/09/21 10:36:54;;;;;;;5.07;2.60;;;16.30;99.90;;;;;;5001120;28;20474;-68
2022/09/21 10:39:29;;;;;;;4.20;2.57;;;16.30;99.90;;;;;;4999289;28;20420;-69
2022/09/21 10:42:15;;;;;;;4.83;2.70;;;16.40;99.90;;;;;;4999740;28;21174;-68
2022/09/21 10:44:52;;;;;;;6.33;2.63;;;16.40;99.90;;;;;;5001442;28;20476;-68
2022/09/21 10:47:35;;;;;;;3.20;2.47;;;16.50;99.90;;;;;;4999639;28;20445;-68
2022/09/21 10:50:03;;;;;;;7.13;2.63;;;16.60;99.90;;;;;;5002781;28;20424;-68
2022/09/21 10:53:10;;;;;;;4.20;2.50;;;16.70;99.90;;;;;;4998562;28;20443;-68
2022/09/21 10:55:50;;;;;;;3.77;2.67;;;16.70;99.90;;;;;;4975242;28;20470;-68
2022/09/21 10:58:16;;;;;;;3.37;2.50;;;16.70;99.90;;;;;;4999776;28;20427;-67
2022/09/21 11:00:52;;;;;;;4.70;2.63;;;16.80;99.90;;;;;;4999526;28;20447;-68
2022/09/21 11:03:29;;;;;;;5.53;3.30;;;16.80;99.90;;;;;;5000496;28;20208;-68
2022/09/21 11:06:16;;;;;;;4.40;3.17;;;16.90;99.90;;;;;;5000393;28;20509;-68
2022/09/21 11:08:54;;;;;;;5.47;2.60;;;17.00;99.90;;;;;;4999911;28;21007;-69
2022/09/21 11:11:28;;;;;;;4.70;3.20;;;17.10;99.90;;;;;;4997979;28;20468;-68
2022/09/21 11:14:06;;;;;;;4.63;2.83;;;17.20;99.90;;;;;;5001621;28;20423;-68
2022/09/21 11:16:44;;;;;;;3.90;2.87;;;17.30;99.90;;;;;;4997102;28;20467;-69
2022/09/21 11:19:17;;;;;;;4.80;2.80;;;17.40;99.90;;;;;;4998348;28;20425;-69
2022/09/21 11:22:03;;;;;;;6.77;2.67;;;17.50;99.90;;;;;;4997874;28;20427;-67
2022/09/21 11:24:59;;;;;;;4.00;2.97;;;17.60;99.90;;;;;;4997710;28;20518;-68
2022/09/21 11:27:31;;;;;;;3.60;2.77;;;17.60;99.90;;;;;;5002835;28;20503;-68
2022/09/21 11:30:03;;;;;;;4.33;2.47;;;17.60;99.90;;;;;;5000463;28;20459;-68
2022/09/21 11:32:47;;;;;;;3.67;2.63;;;17.70;99.90;;;;;;5002762;28;20443;-69
2022/09/21 11:35:25;;;;;;;4.20;2.60;;;17.70;99.90;;;;;;4997826;28;20455;-70
2022/09/21 11:38:00;;;;;;;5.07;2.40;;;17.80;99.90;;;;;;4997160;28;20872;-68
2022/09/21 11:40:53;;;;;;;3.40;2.13;;;17.80;99.90;;;;;;4997422;28;20518;-68
2022/09/21 11:43:54;;;;;;;4.70;2.20;;;17.80;99.90;;;;;;4999213;28;20428;-68
2022/09/21 11:46:24;;;;;;;4.37;2.50;;;17.80;99.90;;;;;;4997297;28;20905;-69
2022/09/21 11:49:32;;;;;;;4.23;2.10;;;18.10;99.90;;;;;;5000955;28;21223;-69
2022/09/21 11:52:24;;;;;;;4.57;2.50;;;18.30;99.90;;;;;;4997476;28;20571;-68
2022/09/21 11:55:16;;;;;;;2.67;1.93;;;18.50;99.90;;;;;;4997479;28;20451;-68
2022/09/21 11:57:49;;;;;;;2.80;2.30;;;19.00;99.90;;;;;;4982651;28;20479;-69
2022/09/21 12:00:23;;;;;;;2.73;2.40;;;19.80;99.90;;;;;;4998995;28;20440;-68
2022/09/21 12:03:07;;;;;;;2.87;2.17;;;20.40;99.90;;;;;;4996544;28;20446;-67
2022/09/21 12:05:54;;;;;;;3.07;2.20;;;20.90;99.90;;;;;;5001820;28;20542;-68
2022/09/21 12:08:42;;;;;;;3.90;2.33;;;21.50;99.90;;;;;;4997298;28;20444;-68
2022/09/21 12:11:32;;;;;;;6.50;2.13;;;22.10;99.90;;;;;;4997027;28;20566;-67
2022/09/21 12:14:23;;;;;;;2.40;2.13;;;22.50;99.90;;;;;;4998659;28;20438;-67
2022/09/21 12:16:59;;;;;;;2.60;1.97;;;23.10;99.90;;;;;;4999464;28;20657;-67
2022/09/21 12:19:36;;;;;;;2.90;2.30;;;23.50;98.70;;;;;;4999202;28;20485;-67
2022/09/21 12:22:08;;;;;;;3.07;2.67;;;23.60;95.40;;;;;;4995910;28;20531;-67
2022/09/21 12:24:45;;;;;;;5.10;3.00;;;23.70;94.50;;;;;;4998898;28;20455;-68
2022/09/21 12:27:19;;;;;;;4.10;2.70;;;23.90;92.30;;;;;;4997360;28;20448;-68
2022/09/21 12:29:52;;;;;;;2.90;2.57;;;24.00;91.30;;;;;;4997255;28;20448;-68
2022/09/21 12:32:52;;;;;;;5.00;2.70;;;24.10;89.50;;;;;;5000346;28;20427;-68
2022/09/21 12:35:25;;;;;;;3.00;2.67;;;24.40;88.30;;;;;;5000462;28;20568;-68
2022/09/21 12:38:00;;;;;;;3.03;2.37;;;24.50;85.60;;;;;;4996482;28;21008;-70
2022/09/21 12:40:37;;;;;;;2.90;2.10;;;24.70;84.60;;;;;;4998989;28;20427;-68
2022/09/21 12:43:10;;;;;;;2.90;2.50;;;24.80;82.90;;;;;;4997761;28;20494;-68
2022/09/21 12:45:40;;;;;;;3.47;2.83;;;25.00;80.30;;;;;;4996584;28;20447;-68
2022/09/21 12:48:27;;;;;;;4.33;2.60;;;25.10;79.80;;;;;;5001026;28;20432;-69
2022/09/21 12:51:04;;;;;;;3.33;2.50;;;25.10;79.00;;;;;;4998722;28;20436;-68
2022/09/21 12:53:33;;;;;;;2.33;2.10;;;25.20;78.60;;;;;;4997198;28;20449;-69
2022/09/21 12:56:15;;;;;;;5.23;2.30;;;25.10;76.90;;;;;;4996482;28;20478;-69
2022/09/21 12:59:04;;;;;;;5.50;2.63;;;25.00;77.80;;;;;;4997604;28;20854;-68
2022/09/21 13:02:17;;;;;;;2.60;2.20;;;25.20;77.00;;;;;;4997550;28;20471;-69
2022/09/21 13:04:47;;;;;;;2.80;2.37;;;25.30;75.50;;;;;;4997110;28;20566;-69
2022/09/21 13:07:31;;;;;;;2.60;2.17;;;25.30;73.90;;;;;;4997404;28;20459;-69
2022/09/21 13:10:06;;;;;;;2.60;2.10;;;25.60;72.60;;;;;;4996545;28;20428;-69
2022/09/21 13:12:38;;;;;;;4.67;2.00;;;25.80;71.50;;;;;;4978133;28;20436;-69
2022/09/21 13:15:20;;;;;;;2.90;2.17;;;25.90;69.70;;;;;;4994346;28;21016;-68
2022/09/21 13:17:58;;;;;;;2.80;1.90;;;25.90;68.30;;;;;;4997063;28;20507;-69
2022/09/21 13:20:24;;;;;;;3.07;2.50;;;26.00;68.90;;;;;;4996791;28;20983;-71